AAL1022 KSAN-KPHX
Flight info
| Callsign | AAL1022 |
|---|---|
| Flight time | 0h 58m |
| Altitude | 33000 |
| Route | ZZOOO4 HOGGZ HYDRR1 |
| Aircraft | B738/M-SDE2E3FGHIRWXY/LB1 |
Departure
| Time | 2026-04-22 00:17 |
|---|---|
| Airport | San Diego International Airport (KSAN) |
Arrival
| Time | 2026-04-22 01:16 |
|---|---|
| Airport | Phoenix Sky Harbor International Airport (KPHX) |
| Time | Latitude | Longitude | Altitude | Speed | Heading |
|---|---|---|---|---|---|
| 2026-04-21 23:57 | 32.73383 | -117.19814 | 23 ft | 0 kts | 206° |
| 2026-04-22 00:08 | 32.73395 | -117.19807 | 23 ft | 2 kts | 206° |
| 2026-04-22 00:09 | 32.73403 | -117.19802 | 23 ft | 2 kts | 206° |
| 2026-04-22 00:09 | 32.73418 | -117.19800 | 23 ft | 2 kts | 164° |
| 2026-04-22 00:09 | 32.73431 | -117.19809 | 23 ft | 2 kts | 131° |
| 2026-04-22 00:09 | 32.73437 | -117.19819 | 23 ft | 0 kts | 109° |
| 2026-04-22 00:10 | 32.73439 | -117.19827 | 22 ft | 0 kts | 106° |
| 2026-04-22 00:10 | 32.73439 | -117.19828 | 22 ft | 0 kts | 106° |
| 2026-04-22 00:10 | 32.73439 | -117.19827 | 22 ft | 0 kts | 106° |
| 2026-04-22 00:13 | 32.73438 | -117.19823 | 23 ft | 5 kts | 105° |
| 2026-04-22 00:14 | 32.73426 | -117.19689 | 24 ft | 19 kts | 102° |
| 2026-04-22 00:14 | 32.73388 | -117.19520 | 25 ft | 23 kts | 107° |
| 2026-04-22 00:14 | 32.73345 | -117.19350 | 26 ft | 22 kts | 106° |
| 2026-04-22 00:14 | 32.73297 | -117.19151 | 25 ft | 28 kts | 106° |
| 2026-04-22 00:15 | 32.73243 | -117.18922 | 24 ft | 31 kts | 106° |
| 2026-04-22 00:15 | 32.73180 | -117.18671 | 23 ft | 28 kts | 105° |
| 2026-04-22 00:15 | 32.73131 | -117.18451 | 23 ft | 28 kts | 107° |
| 2026-04-22 00:15 | 32.73074 | -117.18221 | 23 ft | 27 kts | 106° |
| 2026-04-22 00:16 | 32.73025 | -117.18028 | 23 ft | 21 kts | 106° |
| 2026-04-22 00:16 | 32.72988 | -117.17877 | 25 ft | 17 kts | 106° |
| 2026-04-22 00:16 | 32.72959 | -117.17750 | 27 ft | 10 kts | 89° |
| 2026-04-22 00:16 | 32.72989 | -117.17676 | 29 ft | 19 kts | 34° |
| 2026-04-22 00:17 | 32.73067 | -117.17764 | 27 ft | 18 kts | 281° |
| 2026-04-22 00:17 | 32.73151 | -117.18141 | 23 ft | 91 kts | 285° |
| 2026-04-22 00:17 | 32.73407 | -117.19189 | 78 ft | 159 kts | 284° |
| 2026-04-22 00:17 | 32.73750 | -117.20417 | 923 ft | 166 kts | 287° |
| 2026-04-22 00:18 | 32.74216 | -117.21652 | 2073 ft | 172 kts | 307° |
| 2026-04-22 00:18 | 32.75255 | -117.22364 | 2983 ft | 197 kts | 349° |
| 2026-04-22 00:18 | 32.76652 | -117.21951 | 3852 ft | 228 kts | 28° |
| 2026-04-22 00:18 | 32.77978 | -117.20886 | 5036 ft | 238 kts | 20° |
| 2026-04-22 00:19 | 32.79590 | -117.20878 | 5871 ft | 249 kts | 323° |
| 2026-04-22 00:19 | 32.80533 | -117.22695 | 6005 ft | 291 kts | 284° |
| 2026-04-22 00:19 | 32.81139 | -117.25229 | 5959 ft | 342 kts | 290° |
| 2026-04-22 00:19 | 32.82467 | -117.27776 | 5947 ft | 378 kts | 309° |
| 2026-04-22 00:20 | 32.84383 | -117.29874 | 5944 ft | 379 kts | 315° |
| 2026-04-22 00:20 | 32.86002 | -117.32303 | 5990 ft | 373 kts | 295° |
| 2026-04-22 00:20 | 32.86550 | -117.35128 | 6445 ft | 325 kts | 268° |
| 2026-04-22 00:20 | 32.85978 | -117.37471 | 6923 ft | 279 kts | 238° |
| 2026-04-22 00:21 | 32.84672 | -117.38940 | 7410 ft | 240 kts | 217° |
| 2026-04-22 00:21 | 32.83373 | -117.39876 | 7882 ft | 201 kts | 213° |
| 2026-04-22 00:21 | 32.82240 | -117.40534 | 8354 ft | 159 kts | 208° |
| 2026-04-22 00:21 | 32.81343 | -117.40929 | 8737 ft | 126 kts | 205° |
| 2026-04-22 00:22 | 32.80472 | -117.41202 | 9428 ft | 136 kts | 201° |
| 2026-04-22 00:22 | 32.79475 | -117.41472 | 9912 ft | 164 kts | 199° |
| 2026-04-22 00:22 | 32.78230 | -117.41695 | 10403 ft | 196 kts | 191° |
| 2026-04-22 00:22 | 32.76753 | -117.41596 | 10884 ft | 234 kts | 172° |
| 2026-04-22 00:23 | 32.75264 | -117.40532 | 11371 ft | 277 kts | 137° |
| 2026-04-22 00:23 | 32.74411 | -117.38416 | 12146 ft | 302 kts | 103° |
| 2026-04-22 00:23 | 32.74505 | -117.35892 | 12984 ft | 315 kts | 80° |
| 2026-04-22 00:23 | 32.74907 | -117.33321 | 13868 ft | 320 kts | 81° |
| 2026-04-22 00:24 | 32.75624 | -117.30842 | 14644 ft | 328 kts | 59° |
| 2026-04-22 00:24 | 32.76868 | -117.28440 | 14968 ft | 354 kts | 62° |
| 2026-04-22 00:24 | 32.77625 | -117.25539 | 14952 ft | 385 kts | 86° |
| 2026-04-22 00:24 | 32.77393 | -117.22299 | 14961 ft | 402 kts | 105° |
| 2026-04-22 00:25 | 32.76748 | -117.19179 | 14930 ft | 386 kts | 108° |
| 2026-04-22 00:25 | 32.76136 | -117.16105 | 14859 ft | 373 kts | 106° |
| 2026-04-22 00:25 | 32.75564 | -117.13167 | 14772 ft | 362 kts | 107° |
| 2026-04-22 00:25 | 32.75106 | -117.10274 | 14736 ft | 353 kts | 96° |
| 2026-04-22 00:26 | 32.75228 | -117.07385 | 14811 ft | 342 kts | 85° |
| 2026-04-22 00:26 | 32.75482 | -117.04630 | 14877 ft | 331 kts | 88° |
| 2026-04-22 00:26 | 32.75619 | -117.01937 | 14928 ft | 322 kts | 90° |
| 2026-04-22 00:26 | 32.75703 | -116.99339 | 15006 ft | 313 kts | 90° |
| 2026-04-22 00:27 | 32.75768 | -116.96870 | 15452 ft | 288 kts | 91° |
| 2026-04-22 00:27 | 32.75824 | -116.94565 | 15708 ft | 273 kts | 91° |
| 2026-04-22 00:27 | 32.75866 | -116.92337 | 15815 ft | 266 kts | 92° |
| 2026-04-22 00:27 | 32.75908 | -116.90044 | 16171 ft | 292 kts | 92° |
| 2026-04-22 00:28 | 32.75949 | -116.87506 | 16548 ft | 319 kts | 91° |
| 2026-04-22 00:28 | 32.75988 | -116.84817 | 17033 ft | 340 kts | 91° |
| 2026-04-22 00:28 | 32.76039 | -116.81921 | 17459 ft | 361 kts | 91° |
| 2026-04-22 00:28 | 32.76091 | -116.78851 | 17685 ft | 387 kts | 91° |
| 2026-04-22 00:29 | 32.76138 | -116.75577 | 17960 ft | 409 kts | 91° |
| 2026-04-22 00:29 | 32.76188 | -116.72137 | 18413 ft | 423 kts | 91° |
| 2026-04-22 00:29 | 32.76241 | -116.68637 | 19052 ft | 432 kts | 91° |
| 2026-04-22 00:29 | 32.76295 | -116.65051 | 19734 ft | 437 kts | 91° |
| 2026-04-22 00:30 | 32.76345 | -116.61404 | 20415 ft | 442 kts | 91° |
| 2026-04-22 00:30 | 32.76395 | -116.57758 | 20979 ft | 450 kts | 91° |
| 2026-04-22 00:30 | 32.76445 | -116.54053 | 21662 ft | 453 kts | 91° |
| 2026-04-22 00:30 | 32.76490 | -116.50275 | 22200 ft | 460 kts | 91° |
| 2026-04-22 00:31 | 32.76539 | -116.46495 | 22791 ft | 464 kts | 91° |
| 2026-04-22 00:31 | 32.76590 | -116.42677 | 23359 ft | 468 kts | 91° |
| 2026-04-22 00:31 | 32.76639 | -116.38786 | 23932 ft | 472 kts | 91° |
| 2026-04-22 00:31 | 32.76685 | -116.34907 | 24469 ft | 477 kts | 92° |
| 2026-04-22 00:32 | 32.76732 | -116.30920 | 25027 ft | 480 kts | 92° |
| 2026-04-22 00:32 | 32.76781 | -116.26982 | 25556 ft | 484 kts | 92° |
| 2026-04-22 00:32 | 32.76823 | -116.22986 | 26046 ft | 488 kts | 92° |
| 2026-04-22 00:32 | 32.76873 | -116.18939 | 26528 ft | 491 kts | 92° |
| 2026-04-22 00:33 | 32.76913 | -116.14864 | 27016 ft | 494 kts | 92° |
| 2026-04-22 00:33 | 32.76951 | -116.10789 | 27420 ft | 498 kts | 92° |
| 2026-04-22 00:33 | 32.76992 | -116.06687 | 27915 ft | 500 kts | 92° |
| 2026-04-22 00:33 | 32.77028 | -116.02529 | 28333 ft | 504 kts | 92° |
| 2026-04-22 00:34 | 32.77066 | -115.98388 | 28705 ft | 507 kts | 92° |
| 2026-04-22 00:34 | 32.77103 | -115.94207 | 29117 ft | 510 kts | 92° |
| 2026-04-22 00:34 | 32.77137 | -115.89992 | 29414 ft | 515 kts | 92° |
| 2026-04-22 00:34 | 32.77166 | -115.85745 | 29838 ft | 516 kts | 92° |
| 2026-04-22 00:35 | 32.77201 | -115.81486 | 30366 ft | 516 kts | 92° |
| 2026-04-22 00:35 | 32.77231 | -115.77235 | 30842 ft | 516 kts | 92° |
| 2026-04-22 00:35 | 32.77264 | -115.73012 | 31306 ft | 516 kts | 92° |
| 2026-04-22 00:35 | 32.77295 | -115.68723 | 31754 ft | 516 kts | 92° |
| 2026-04-22 00:36 | 32.77330 | -115.64518 | 32275 ft | 515 kts | 92° |
| 2026-04-22 00:36 | 32.77356 | -115.60310 | 32486 ft | 510 kts | 92° |
| 2026-04-22 00:36 | 32.77385 | -115.56079 | 32884 ft | 509 kts | 92° |
| 2026-04-22 00:37 | 32.77432 | -115.47707 | 32925 ft | 508 kts | 92° |
| 2026-04-22 00:37 | 32.77477 | -115.39396 | 32919 ft | 502 kts | 92° |
| 2026-04-22 00:38 | 32.77523 | -115.31118 | 32917 ft | 501 kts | 92° |
| 2026-04-22 00:38 | 32.77546 | -115.22857 | 32915 ft | 502 kts | 92° |
| 2026-04-22 00:39 | 32.77571 | -115.14601 | 32910 ft | 502 kts | 92° |
| 2026-04-22 00:39 | 32.77598 | -115.06324 | 32908 ft | 502 kts | 92° |
| 2026-04-22 00:40 | 32.77611 | -114.98058 | 32828 ft | 502 kts | 92° |
| 2026-04-22 00:40 | 32.77618 | -114.93922 | 32467 ft | 506 kts | 92° |
| 2026-04-22 00:40 | 32.77625 | -114.89752 | 32070 ft | 503 kts | 92° |
| 2026-04-22 00:40 | 32.77632 | -114.85658 | 31681 ft | 499 kts | 92° |
| 2026-04-22 00:41 | 32.77634 | -114.81557 | 31290 ft | 498 kts | 92° |
| 2026-04-22 00:41 | 32.77634 | -114.77441 | 30897 ft | 499 kts | 92° |
| 2026-04-22 00:41 | 32.77632 | -114.73215 | 30498 ft | 502 kts | 92° |
| 2026-04-22 00:41 | 32.77627 | -114.69025 | 30103 ft | 504 kts | 92° |
| 2026-04-22 00:42 | 32.77623 | -114.64890 | 29713 ft | 504 kts | 92° |
| 2026-04-22 00:42 | 32.77621 | -114.60770 | 29331 ft | 504 kts | 92° |
| 2026-04-22 00:42 | 32.77615 | -114.56574 | 28938 ft | 504 kts | 92° |
| 2026-04-22 00:42 | 32.77605 | -114.52425 | 28554 ft | 504 kts | 92° |
| 2026-04-22 00:43 | 32.77597 | -114.48328 | 28173 ft | 505 kts | 92° |
| 2026-04-22 00:43 | 32.77586 | -114.44126 | 27783 ft | 504 kts | 92° |
| 2026-04-22 00:43 | 32.77573 | -114.39972 | 27397 ft | 504 kts | 92° |
| 2026-04-22 00:43 | 32.77562 | -114.35819 | 27015 ft | 504 kts | 92° |
| 2026-04-22 00:44 | 32.77551 | -114.31642 | 26628 ft | 504 kts | 92° |
| 2026-04-22 00:44 | 32.77536 | -114.27538 | 26246 ft | 504 kts | 93° |
| 2026-04-22 00:44 | 32.77521 | -114.23379 | 25863 ft | 504 kts | 92° |
| 2026-04-22 00:44 | 32.77505 | -114.19215 | 25478 ft | 504 kts | 92° |
| 2026-04-22 00:45 | 32.77480 | -114.15064 | 25096 ft | 505 kts | 93° |
| 2026-04-22 00:45 | 32.77461 | -114.10904 | 24895 ft | 500 kts | 92° |
| 2026-04-22 00:45 | 32.77513 | -114.06826 | 24892 ft | 499 kts | 88° |
| 2026-04-22 00:45 | 32.77881 | -114.02691 | 24891 ft | 503 kts | 84° |
| 2026-04-22 00:46 | 32.78364 | -113.98573 | 24895 ft | 505 kts | 84° |
| 2026-04-22 00:46 | 32.78830 | -113.94486 | 24887 ft | 493 kts | 84° |
| 2026-04-22 00:46 | 32.79263 | -113.90552 | 24889 ft | 475 kts | 84° |
| 2026-04-22 00:46 | 32.79678 | -113.86762 | 24893 ft | 460 kts | 84° |
| 2026-04-22 00:47 | 32.80092 | -113.82925 | 24901 ft | 467 kts | 84° |
| 2026-04-22 00:47 | 32.80503 | -113.79127 | 24903 ft | 473 kts | 84° |
| 2026-04-22 00:47 | 32.80939 | -113.75211 | 24893 ft | 473 kts | 82° |
| 2026-04-22 00:47 | 32.81737 | -113.71448 | 24896 ft | 471 kts | 71° |
| 2026-04-22 00:48 | 32.83005 | -113.67943 | 24902 ft | 463 kts | 62° |
| 2026-04-22 00:48 | 32.84702 | -113.64753 | 24899 ft | 447 kts | 51° |
| 2026-04-22 00:48 | 32.86736 | -113.61964 | 24915 ft | 446 kts | 46° |
| 2026-04-22 00:48 | 32.88829 | -113.59244 | 24908 ft | 450 kts | 46° |
| 2026-04-22 00:49 | 32.90920 | -113.56457 | 24909 ft | 450 kts | 47° |
| 2026-04-22 00:49 | 32.92992 | -113.53668 | 24905 ft | 450 kts | 47° |
| 2026-04-22 00:49 | 32.95065 | -113.50879 | 24857 ft | 450 kts | 47° |
| 2026-04-22 00:49 | 32.97121 | -113.48111 | 24527 ft | 449 kts | 47° |
| 2026-04-22 00:50 | 32.99159 | -113.45370 | 23913 ft | 442 kts | 47° |
| 2026-04-22 00:50 | 33.01182 | -113.42641 | 23269 ft | 435 kts | 47° |
| 2026-04-22 00:50 | 33.03159 | -113.39973 | 22636 ft | 429 kts | 47° |
| 2026-04-22 00:50 | 33.05128 | -113.37311 | 22036 ft | 423 kts | 47° |
| 2026-04-22 00:51 | 33.07053 | -113.34702 | 21891 ft | 418 kts | 48° |
| 2026-04-22 00:51 | 33.09009 | -113.32054 | 21916 ft | 429 kts | 48° |
| 2026-04-22 00:51 | 33.10996 | -113.29365 | 21915 ft | 431 kts | 48° |
| 2026-04-22 00:51 | 33.12954 | -113.26707 | 21921 ft | 429 kts | 48° |
| 2026-04-22 00:52 | 33.14938 | -113.24017 | 21924 ft | 427 kts | 48° |
| 2026-04-22 00:52 | 33.16887 | -113.21376 | 21878 ft | 422 kts | 48° |
| 2026-04-22 00:52 | 33.18792 | -113.18794 | 21337 ft | 415 kts | 48° |
| 2026-04-22 00:52 | 33.20695 | -113.16215 | 20730 ft | 409 kts | 48° |
| 2026-04-22 00:53 | 33.22562 | -113.13679 | 20130 ft | 413 kts | 48° |
| 2026-04-22 00:53 | 33.24440 | -113.11104 | 19530 ft | 407 kts | 51° |
| 2026-04-22 00:53 | 33.25943 | -113.08290 | 19005 ft | 398 kts | 66° |
| 2026-04-22 00:53 | 33.26948 | -113.05302 | 18928 ft | 383 kts | 73° |
| 2026-04-22 00:54 | 33.27547 | -113.02247 | 18943 ft | 379 kts | 86° |
| 2026-04-22 00:54 | 33.27673 | -112.99103 | 18799 ft | 382 kts | 92° |
| 2026-04-22 00:54 | 33.27700 | -112.95947 | 18497 ft | 377 kts | 91° |
| 2026-04-22 00:54 | 33.27770 | -112.92860 | 18062 ft | 369 kts | 91° |
| 2026-04-22 00:55 | 33.27850 | -112.89841 | 17898 ft | 355 kts | 91° |
| 2026-04-22 00:55 | 33.27922 | -112.86837 | 17452 ft | 374 kts | 91° |
| 2026-04-22 00:55 | 33.28116 | -112.80806 | 16995 ft | 346 kts | 87° |
| 2026-04-22 00:56 | 33.28397 | -112.77984 | 17005 ft | 345 kts | 85° |
| 2026-04-22 00:56 | 33.28689 | -112.75134 | 17002 ft | 348 kts | 86° |
| 2026-04-22 00:56 | 33.28962 | -112.72266 | 17022 ft | 347 kts | 86° |
| 2026-04-22 00:56 | 33.29234 | -112.69405 | 17010 ft | 347 kts | 85° |
| 2026-04-22 00:57 | 33.29508 | -112.66528 | 17001 ft | 343 kts | 86° |
| 2026-04-22 00:57 | 33.29772 | -112.63753 | 16707 ft | 335 kts | 86° |
| 2026-04-22 00:57 | 33.30032 | -112.60957 | 16301 ft | 342 kts | 86° |
| 2026-04-22 00:57 | 33.30292 | -112.58167 | 15864 ft | 338 kts | 86° |
| 2026-04-22 00:58 | 33.30551 | -112.55411 | 15429 ft | 334 kts | 86° |
| 2026-04-22 00:58 | 33.30804 | -112.52679 | 14991 ft | 329 kts | 86° |
| 2026-04-22 00:58 | 33.31053 | -112.49969 | 14564 ft | 325 kts | 86° |
| 2026-04-22 00:58 | 33.31300 | -112.47321 | 14153 ft | 321 kts | 86° |
| 2026-04-22 00:59 | 33.31541 | -112.44685 | 13745 ft | 317 kts | 86° |
| 2026-04-22 00:59 | 33.31782 | -112.42076 | 13343 ft | 313 kts | 86° |
| 2026-04-22 00:59 | 33.32017 | -112.39520 | 12947 ft | 318 kts | 86° |
| 2026-04-22 00:59 | 33.32256 | -112.36871 | 12531 ft | 317 kts | 86° |
| 2026-04-22 01:00 | 33.32491 | -112.34300 | 12125 ft | 312 kts | 87° |
| 2026-04-22 01:00 | 33.32725 | -112.31744 | 11726 ft | 308 kts | 87° |
| 2026-04-22 01:00 | 33.32956 | -112.29203 | 11333 ft | 304 kts | 87° |
| 2026-04-22 01:00 | 33.33179 | -112.26726 | 10942 ft | 300 kts | 87° |
| 2026-04-22 01:01 | 33.33400 | -112.24271 | 10551 ft | 297 kts | 86° |
| 2026-04-22 01:01 | 33.33627 | -112.21779 | 10170 ft | 302 kts | 86° |
| 2026-04-22 01:01 | 33.33853 | -112.19354 | 10013 ft | 288 kts | 86° |
| 2026-04-22 01:01 | 33.34069 | -112.16988 | 9614 ft | 286 kts | 87° |
| 2026-04-22 01:02 | 33.34275 | -112.14665 | 9353 ft | 278 kts | 87° |
| 2026-04-22 01:02 | 33.34478 | -112.12423 | 9250 ft | 264 kts | 86° |
| 2026-04-22 01:02 | 33.34671 | -112.10294 | 9157 ft | 252 kts | 86° |
| 2026-04-22 01:02 | 33.34766 | -112.08244 | 8976 ft | 245 kts | 94° |
| 2026-04-22 01:03 | 33.34729 | -112.06225 | 8712 ft | 242 kts | 95° |
| 2026-04-22 01:03 | 33.34698 | -112.04185 | 8444 ft | 248 kts | 94° |
| 2026-04-22 01:03 | 33.34669 | -112.02131 | 8166 ft | 247 kts | 94° |
| 2026-04-22 01:03 | 33.34641 | -112.00087 | 7889 ft | 245 kts | 94° |
| 2026-04-22 01:04 | 33.34619 | -111.98083 | 7626 ft | 243 kts | 94° |
| 2026-04-22 01:04 | 33.34593 | -111.96066 | 7362 ft | 240 kts | 94° |
| 2026-04-22 01:04 | 33.34565 | -111.94083 | 7117 ft | 243 kts | 94° |
| 2026-04-22 01:04 | 33.34555 | -111.92053 | 7037 ft | 245 kts | 92° |
| 2026-04-22 01:05 | 33.34600 | -111.90018 | 7038 ft | 246 kts | 91° |
| 2026-04-22 01:05 | 33.34641 | -111.87969 | 7040 ft | 246 kts | 91° |
| 2026-04-22 01:05 | 33.34682 | -111.85895 | 7042 ft | 247 kts | 92° |
| 2026-04-22 01:05 | 33.34728 | -111.83839 | 7044 ft | 247 kts | 91° |
| 2026-04-22 01:06 | 33.34771 | -111.81800 | 7046 ft | 248 kts | 91° |
| 2026-04-22 01:06 | 33.34814 | -111.79727 | 7048 ft | 248 kts | 91° |
| 2026-04-22 01:06 | 33.34854 | -111.77685 | 7048 ft | 248 kts | 91° |
| 2026-04-22 01:06 | 33.34898 | -111.75606 | 7047 ft | 248 kts | 91° |
| 2026-04-22 01:07 | 33.34938 | -111.73568 | 7047 ft | 247 kts | 91° |
| 2026-04-22 01:07 | 33.34983 | -111.71513 | 7049 ft | 247 kts | 91° |
| 2026-04-22 01:07 | 33.35028 | -111.69449 | 7051 ft | 248 kts | 91° |
| 2026-04-22 01:07 | 33.35069 | -111.67390 | 7054 ft | 248 kts | 91° |
| 2026-04-22 01:08 | 33.35114 | -111.65319 | 7057 ft | 248 kts | 91° |
| 2026-04-22 01:08 | 33.35163 | -111.63270 | 7059 ft | 248 kts | 89° |
| 2026-04-22 01:08 | 33.35643 | -111.61259 | 6891 ft | 257 kts | 58° |
| 2026-04-22 01:08 | 33.36980 | -111.59877 | 6518 ft | 259 kts | 21° |
| 2026-04-22 01:09 | 33.38733 | -111.59518 | 6158 ft | 256 kts | 356° |
| 2026-04-22 01:09 | 33.40462 | -111.59857 | 5788 ft | 253 kts | 334° |
| 2026-04-22 01:09 | 33.41814 | -111.61091 | 5411 ft | 244 kts | 301° |
| 2026-04-22 01:09 | 33.42438 | -111.62936 | 5108 ft | 235 kts | 277° |
| 2026-04-22 01:10 | 33.42625 | -111.64809 | 5054 ft | 222 kts | 272° |
| 2026-04-22 01:10 | 33.42802 | -111.66649 | 5055 ft | 223 kts | 273° |
| 2026-04-22 01:10 | 33.42974 | -111.68504 | 5052 ft | 224 kts | 274° |
| 2026-04-22 01:10 | 33.43414 | -111.70291 | 5046 ft | 229 kts | 291° |
| 2026-04-22 01:11 | 33.44021 | -111.72054 | 5048 ft | 227 kts | 283° |
| 2026-04-22 01:11 | 33.44331 | -111.73896 | 5016 ft | 225 kts | 271° |
| 2026-04-22 01:11 | 33.44307 | -111.75747 | 4786 ft | 221 kts | 260° |
| 2026-04-22 01:11 | 33.44079 | -111.77533 | 4526 ft | 219 kts | 262° |
| 2026-04-22 01:12 | 33.44046 | -111.79354 | 4240 ft | 217 kts | 267° |
| 2026-04-22 01:12 | 33.44041 | -111.81149 | 3957 ft | 212 kts | 267° |
| 2026-04-22 01:12 | 33.44047 | -111.82889 | 3665 ft | 205 kts | 267° |
| 2026-04-22 01:12 | 33.44051 | -111.84525 | 3426 ft | 190 kts | 267° |
| 2026-04-22 01:13 | 33.44056 | -111.85999 | 3196 ft | 165 kts | 266° |
| 2026-04-22 01:13 | 33.44058 | -111.87289 | 2994 ft | 148 kts | 266° |
| 2026-04-22 01:13 | 33.44060 | -111.88538 | 2827 ft | 150 kts | 266° |
| 2026-04-22 01:13 | 33.44064 | -111.89758 | 2609 ft | 142 kts | 266° |
| 2026-04-22 01:14 | 33.44065 | -111.90917 | 2449 ft | 140 kts | 266° |
| 2026-04-22 01:14 | 33.44067 | -111.92093 | 2269 ft | 142 kts | 267° |
| 2026-04-22 01:14 | 33.44070 | -111.93286 | 2086 ft | 141 kts | 268° |
| 2026-04-22 01:14 | 33.44073 | -111.94448 | 1909 ft | 140 kts | 268° |
| 2026-04-22 01:15 | 33.44074 | -111.95607 | 1733 ft | 138 kts | 268° |
| 2026-04-22 01:15 | 33.44077 | -111.96744 | 1561 ft | 136 kts | 268° |
| 2026-04-22 01:15 | 33.44078 | -111.97871 | 1389 ft | 134 kts | 268° |
| 2026-04-22 01:15 | 33.44082 | -111.99002 | 1189 ft | 138 kts | 269° |
| 2026-04-22 01:16 | 33.44078 | -112.00030 | 1140 ft | 97 kts | 271° |
| 2026-04-22 01:16 | 33.44081 | -112.00652 | 1137 ft | 47 kts | 273° |
| 2026-04-22 01:16 | 33.44083 | -112.00953 | 1135 ft | 28 kts | 265° |
| 2026-04-22 01:16 | 33.44012 | -112.01086 | 1134 ft | 13 kts | 181° |
| 2026-04-22 01:17 | 33.43978 | -112.01010 | 1134 ft | 10 kts | 89° |
| 2026-04-22 01:17 | 33.43977 | -112.00887 | 1136 ft | 14 kts | 91° |
| 2026-04-22 01:17 | 33.43969 | -112.00768 | 1137 ft | 12 kts | 115° |
| 2026-04-22 01:17 | 33.43897 | -112.00735 | 1137 ft | 11 kts | 177° |
| 2026-04-22 01:18 | 33.43818 | -112.00754 | 1135 ft | 10 kts | 218° |
| 2026-04-22 01:18 | 33.43799 | -112.00809 | 1134 ft | 3 kts | 266° |
| 2026-04-22 01:18 | 33.43799 | -112.00821 | 1134 ft | 0 kts | 267° |